• Join FlightAware (Why Join?)
  • Login
  • US Flag 
08:44AM EDT


 

Airport Tracker/Info


-or-


 

Live Flight TrackerFlight Track Log ✈ DCM7075 ✈ 23-Jul-2014 ✈ KPIE - KMSY

Flight Track Log - Related Links

Times and Time Zones

All times are in EDT time to prevent confusion due to time zone crossing. See the DCM7075 flight status page for this flight to view local times or setup timezone preferences in your user account.

Time Position Orientation Groundspeed Altitude Reporting Facility
EDT Latitude Longitude Course Direction KTS MPH feet Rate Location/Type
07:18AM 27.9000 -82.6833 221° Southwest 136 157 500  Level Tampa TRACON
07:19AM 27.8667 -82.7167 221° Southwest 205 236 1,600 1,380 Climbing Tampa TRACON
07:20AM 27.8500 -82.8000 257° West 257 296 3,500 1,800 Climbing Tampa TRACON
07:22AM 27.7950 -82.9297 244° Southwest 225 259 7,500 1,920 Climbing Miami Center
07:23AM 27.7806 -82.9969 256° West 223 257 9,500 1,860 Climbing Miami Center
07:24AM 27.7661 -83.0636 256° West 221 254 11,300 1,680 Climbing Miami Center
07:25AM 27.7506 -83.1303 255° West 221 254 13,000 1,380 Climbing Miami Center
07:26AM 27.7594 -83.2011 278° West 222 255 14,200 1,080 Climbing Miami Center
07:27AM 27.7669 -83.2786 276° West 246 283 15,200 1,020 Climbing Miami Center
07:28AM 27.7711 -83.3597 273° West 254 292 16,300 1,080 Climbing Miami Center
07:29AM 27.7758 -83.4392 274° West 257 296 17,500 1,080 Climbing Miami Center
07:30AM 27.7714 -83.5169 266° West 251 289 18,500 1,020 Climbing Miami Center
07:31AM 27.7778 -83.5939 275° West 250 288 19,600 1,080 Climbing Miami Center
07:32AM 27.7844 -83.6878 275° West 250 288 20,800 960 Climbing Miami Center
07:33AM 27.8067 -83.7661 288° West 258 297 21,600 780 Climbing Miami Center
07:34AM 27.8281 -83.8469 287° West 264 304 22,400 780 Climbing Miami Center
07:35AM 27.8456 -83.9286 284° West 266 306 23,200 780 Climbing Miami Center
07:36AM 27.8669 -84.0114 286° West 269 310 24,100 780 Climbing Miami Center
07:37AM 27.8861 -84.0939 285° West 270 311 24,800 720 Climbing Miami Center
07:38AM 27.9053 -84.1769 285° West 271 312 25,600 780 Climbing Miami Center
07:39AM 27.9242 -84.2597 284° West 271 312 26,400 780 Climbing Miami Center
07:40AM 27.9447 -84.3428 286° West 271 312 27,200 720 Climbing Miami Center
07:41AM 27.9750 -84.4194 294° West 276 318 27,900 720 Climbing Miami Center
07:42AM 28.0106 -84.5192 292° West 281 323 28,700 660 Climbing Miami Center
07:43AM 28.0406 -84.6022 292° West 283 326 29,300 540 Climbing Miami Center
07:44AM 28.0686 -84.6872 291° West 293 337 29,900 480 Climbing Jacksonville Center
07:45AM 28.0989 -84.7653 294° West 293 337 30,300 420 Climbing Jacksonville Center
07:46AM 28.1289 -84.8506 292° West 293 337 30,800 480 Climbing Jacksonville Center
07:47AM 28.1608 -84.9431 291° West 302 348 31,300 480 Climbing Jacksonville Center
07:48AM 28.1928 -85.0331 292° West 302 348 31,800 480 Climbing Jacksonville Center
07:49AM 28.2247 -85.1092 295° West 303 349 32,300 480 Climbing Jacksonville Center
07:50AM 28.2564 -85.2042 291° West 303 349 32,800 480 Climbing Jacksonville Center
07:51AM 28.2861 -85.2944 291° West 303 349 33,300 480 Climbing Jacksonville Center
07:52AM 28.3158 -85.3825 291° West 309 356 33,800 480 Climbing Jacksonville Center
07:53AM 28.3494 -85.4706 293° West 309 356 34,300 480 Climbing Jacksonville Center
07:54AM 28.3808 -85.5633 291° West 309 356 34,800 480 Climbing Jacksonville Center
07:55AM 28.4144 -85.6586 292° West 309 356 35,300 480 Climbing Jacksonville Center
07:56AM 28.4458 -85.7444 293° West 303 349 35,800 480 Climbing Jacksonville Center
07:57AM 28.4753 -85.8350 290° West 303 349 36,300 420 Climbing Jacksonville Center
07:58AM 28.5086 -85.9258 293° West 308 354 36,700 360 Climbing Jacksonville Center
07:59AM 28.5397 -86.0142 292° West 308 354 37,100 360 Climbing Jacksonville Center
08:00AM 28.5711 -86.1025 292° West 308 354 37,500 360 Climbing Jacksonville Center
08:01AM 28.6019 -86.1956 291° West 308 354 37,900 240 Climbing Jacksonville Center
08:02AM 28.6331 -86.2867 291° West 314 361 38,000  Climbing Jacksonville Center
08:03AM 28.6681 -86.3778 294° West 314 361 38,000  Level Jacksonville Center
08:04AM 28.6989 -86.4711 291° West 320 368 38,000  Level Jacksonville Center
08:05AM 28.7317 -86.5669 291° West 315 362 38,000  Level Jacksonville Center
08:06AM 28.7769 -86.6586 299° West 315 362 38,000  Level Jacksonville Center
08:07AM 28.8331 -86.7436 307° West 330 380 38,000  Level Jacksonville Center
08:08AM 28.8886 -86.8311 306° West 335 386 38,000  Level Jacksonville Center
08:09AM 28.9425 -86.9139 307° West 341 392 38,000  Level Jacksonville Center
08:10AM 29.0003 -87.0017 307° West 341 392 38,000  Level Jacksonville Center
08:11AM 29.0578 -87.0894 307° West 341 392 38,000  Level Jacksonville Center
08:12AM 29.0994 -87.1500 308° West 338 389 38,000  Level Houston Center
08:13AM 29.1547 -87.2342 307° West 335 386 38,000  Level Houston Center
08:14AM 29.2111 -87.3197 307° West 335 386 38,000  Level Houston Center
08:15AM 29.2675 -87.4047 307° West 335 386 38,000  Level Houston Center
08:16AM 29.3236 -87.4892 307° West 335 386 38,000  Level Houston Center
08:17AM 29.3819 -87.5772 307° West 335 386 38,000  Level Houston Center
08:18AM 29.4511 -87.6792 308° West 336 387 38,000  Level Houston Center
08:19AM 29.5094 -87.7631 309° West 337 388 38,000  Level Houston Center
08:20AM 29.5686 -87.8475 309° West 338 389 38,000  Level Houston Center
08:21AM 29.6283 -87.9292 310° West 338 389 38,000  Level Houston Center
08:22AM 29.6850 -88.0133 308° West 336 387 38,000  Level Houston Center
08:23AM 29.6989 -88.1142 279° West 318 366 38,000  Level Houston Center
08:24AM 29.7081 -88.2144 276° West 317 365 38,000  Level Houston Center
08:25AM 29.7175 -88.3114 276° West 308 354 38,000 -660 Level Houston Center
08:26AM 29.7281 -88.4264 276° West 315 362 36,700 -1,680 Descending Houston Center
08:27AM 29.7353 -88.5356 274° West 340 391 34,600 -2,100 Descending Houston Center
08:28AM 29.7475 -88.6419 278° West 339 390 32,400 -2,160 Descending Houston Center
08:29AM 29.7661 -88.7483 281° West 339 390 30,200 -2,220 Descending Houston Center
08:30AM 29.7833 -88.8564 280° West 340 391 27,900 -2,280 Descending Houston Center
08:31AM 29.7992 -88.9614 280° West 337 388 25,600 -2,460 Descending Houston Center
08:32AM 29.8194 -89.0869 281° West 335 386 22,900 -2,460 Descending Houston Center
08:33AM 29.8353 -89.1886 280° West 328 377 20,600 -2,280 Descending Houston Center
08:34AM 29.8494 -89.2869 279° West 317 365 18,300 -2,280 Descending Houston Center
08:35AM 29.8717 -89.3844 285° West 316 364 16,000 -2,340 Descending Houston Center
08:36AM 29.8767 -89.4067 285° West 312 359 15,600 -2,160 Descending Houston Center
08:37AM 29.8928 -89.4817 284° West 316 364 13,800 -2,160 Descending Houston Center
08:37AM 29.9014 -89.5181 285° West 312 359 13,200 -1,800 Descending Houston Center
08:38AM 29.9131 -89.5758 283° West 309 356 12,000 -1,800 Descending Houston Center
08:38AM 29.9214 -89.6108 285° West 299 344 11,400 -1,800 Descending Houston Center
08:39AM 29.9347 -89.6669 285° West 300 345 10,200 -1,800 Descending Houston Center
08:39AM 29.9414 -89.6986 284° West 283 326 9,600 -1,980 Descending Houston Center
08:40AM 29.9506 -89.7642 279° West 279 321 8,200 -1,680 Descending Houston Center
08:41AM 29.9425 -89.8522 264° West 280 322 6,600 -1,620 Descending Houston Center
08:42AM 29.9328 -89.9389 263° West 252 290 4,900 -1,260 Descending Houston Center
08:43AM 29.9286 -90.0031 266° West 236 272 4,000 -480 Descending Houston Center
08:44AM 29.9406 -90.0531 285° West 186 214 4,000  Level Houston Center
08:44AM 29.9453 -90.0681 290° West 150 173 4,000 -1,020 Level Houston Center
08:45AM 29.9531 -90.1014 285° West 162 186 3,000 -1,200 Descending Houston Center
08:46AM 29.9639 -90.1442 286° West 152 175 1,800 -840 Descending Houston Center
08:47AM 29.9719 -90.1778 285° West 132 152 1,300 -600 Descending Houston Center
08:48AM 29.9814 -90.2200 284° West 112 129 600 -420 Descending Houston Center
08:49AM 29.9903 -90.2528 287° West 116 133 500 -120 Descending Houston Center
08:51AM 29.9833 -90.2500 281° West  Level FlightAware Approximate
08:58AM 29.9933 -90.2590 281° West  Level Estimated
08:59AM 29.9933 -90.2590 142° Southeast  Level Estimated